createdAt,value
2019-01-23T00:02:18.327Z,56.63
2019-01-23T00:04:52.532Z,55.78
2019-01-23T00:07:29.623Z,56.66
2019-01-23T00:10:04.820Z,55.72
2019-01-23T00:12:36.906Z,56.12
2019-01-23T00:15:11.324Z,56.00
2019-01-23T00:17:44.807Z,57.75
2019-01-23T00:20:18.261Z,55.82
2019-01-23T00:22:50.602Z,56.96
2019-01-23T00:25:21.937Z,55.73
2019-01-23T00:27:53.791Z,54.61
2019-01-23T00:30:25.076Z,53.51
2019-01-23T00:32:56.720Z,53.20
2019-01-23T00:35:29.997Z,53.53
2019-01-23T00:38:03.540Z,53.31
2019-01-23T00:40:35.292Z,53.87
2019-01-23T00:43:08.002Z,53.91
2019-01-23T00:45:41.231Z,54.58
2019-01-23T00:48:14.158Z,54.41
2019-01-23T00:50:47.689Z,54.86
2019-01-23T00:53:21.258Z,56.07
2019-01-23T00:55:53.408Z,55.51
2019-01-23T00:58:26.994Z,57.58
2019-01-23T01:00:58.142Z,56.43
2019-01-23T01:03:30.308Z,54.62
2019-01-23T01:06:02.880Z,55.28
2019-01-23T01:08:34.334Z,53.79
2019-01-23T01:11:07.055Z,54.18
2019-01-23T01:13:40.044Z,53.26
2019-01-23T01:16:12.233Z,54.28
2019-01-23T01:18:43.464Z,53.96
2019-01-23T01:21:14.820Z,52.90
2019-01-23T01:23:47.182Z,52.16
2019-01-23T01:26:18.635Z,52.21
2019-01-23T01:28:55.979Z,53.23
2019-01-23T01:31:23.343Z,52.66
2019-01-23T01:33:54.650Z,54.92
2019-01-23T01:36:26.784Z,54.13
2019-01-23T01:38:58.213Z,52.21
2019-01-23T01:41:30.316Z,53.21
2019-01-23T01:44:03.572Z,51.99
2019-01-23T01:46:36.140Z,51.43
2019-01-23T01:49:09.696Z,51.49
2019-01-23T01:51:42.231Z,52.61
2019-01-23T01:54:17.010Z,53.62
2019-01-23T01:57:08.716Z,52.36
2019-01-23T01:59:44.090Z,52.40
2019-01-23T02:02:15.355Z,51.70
2019-01-23T02:04:47.489Z,51.42
2019-01-23T02:07:19.011Z,52.30
2019-01-23T02:09:52.941Z,51.42
2019-01-23T02:12:25.659Z,52.87
2019-01-23T02:14:58.532Z,53.64
2019-01-23T02:17:31.370Z,52.55
2019-01-23T02:20:02.975Z,53.23
2019-01-23T02:22:34.280Z,53.61
2019-01-23T02:25:07.262Z,53.57
2019-01-23T02:27:39.456Z,52.83
2019-01-23T02:30:14.337Z,52.52
2019-01-23T02:32:48.224Z,53.01
2019-01-23T02:35:26.239Z,51.61
2019-01-23T02:37:58.095Z,52.01
2019-01-23T02:40:29.902Z,51.79
2019-01-23T02:43:01.873Z,52.64
2019-01-23T02:45:35.983Z,52.53
2019-01-23T02:48:06.567Z,52.13
2019-01-23T02:50:38.454Z,52.21
2019-01-23T02:53:11.732Z,51.50
2019-01-23T02:55:43.331Z,51.67
2019-01-23T02:58:15.230Z,50.98
2019-01-23T03:00:47.709Z,51.88
2019-01-23T03:03:18.811Z,50.48
2019-01-23T03:05:50.099Z,51.36
2019-01-23T03:08:20.764Z,52.11
2019-01-23T03:10:51.777Z,51.70
2019-01-23T03:13:23.537Z,51.61
2019-01-23T03:15:56.590Z,52.44
2019-01-23T03:18:28.039Z,52.25
2019-01-23T03:21:06.903Z,53.26
2019-01-23T03:23:39.176Z,53.37
2019-01-23T03:26:10.689Z,54.28
2019-01-23T03:28:42.066Z,53.45
2019-01-23T03:31:16.103Z,52.53
2019-01-23T03:33:49.140Z,52.56
2019-01-23T03:36:23.855Z,51.16
2019-01-23T03:39:02.649Z,50.63
2019-01-23T03:41:46.314Z,51.54
2019-01-23T03:44:18.504Z,51.70
2019-01-23T03:46:52.320Z,50.86
2019-01-23T03:49:24.039Z,51.00
2019-01-23T03:51:56.763Z,51.14
2019-01-23T03:54:28.482Z,50.50
2019-01-23T03:57:01.231Z,50.49
2019-01-23T03:59:35.826Z,49.55
2019-01-23T04:02:07.926Z,50.41
2019-01-23T04:04:39.572Z,51.47
2019-01-23T04:07:10.190Z,51.97
2019-01-23T04:09:41.567Z,51.16
2019-01-23T04:12:16.954Z,49.83
2019-01-23T04:14:51.746Z,49.95
2019-01-23T04:17:25.552Z,49.93
2019-01-23T04:19:57.194Z,49.04
2019-01-23T04:22:31.537Z,49.31
2019-01-23T04:25:09.667Z,49.48
2019-01-23T04:27:42.522Z,49.51
2019-01-23T04:30:20.919Z,49.32
2019-01-23T04:32:53.624Z,48.97
2019-01-23T04:35:25.094Z,48.30
2019-01-23T04:37:57.650Z,48.69
2019-01-23T04:40:28.214Z,47.99
2019-01-23T04:43:00.025Z,48.93
2019-01-23T04:45:32.194Z,49.51
2019-01-23T04:48:08.649Z,49.33
2019-01-23T04:51:14.544Z,50.12
2019-01-23T04:53:49.489Z,49.53
2019-01-23T04:56:21.752Z,49.93
2019-01-23T04:58:53.903Z,49.24
2019-01-23T05:01:25.762Z,50.04
2019-01-23T05:03:58.069Z,49.97
2019-01-23T05:06:29.896Z,50.78
2019-01-23T05:09:01.275Z,50.63
2019-01-23T05:11:34.769Z,51.29
2019-01-23T05:14:06.416Z,52.00
2019-01-23T05:16:37.977Z,51.31
2019-01-23T05:19:11.046Z,51.68
2019-01-23T05:21:43.449Z,51.13
2019-01-23T05:24:17.416Z,51.24
2019-01-23T05:26:48.801Z,51.29
2019-01-23T05:29:23.126Z,50.99
2019-01-23T05:32:00.736Z,50.38
2019-01-23T05:34:37.088Z,49.71
2019-01-23T05:37:11.206Z,49.24
2019-01-23T05:39:42.890Z,49.20
2019-01-23T05:42:14.621Z,48.67
2019-01-23T05:44:46.976Z,49.02
2019-01-23T05:47:18.655Z,49.77
2019-01-23T05:49:54.298Z,50.99
2019-01-23T05:52:25.562Z,51.55
2019-01-23T05:54:58.536Z,52.01
2019-01-23T05:57:30.821Z,52.08
2019-01-23T06:00:03.577Z,50.41
2019-01-23T06:02:46.575Z,51.39
2019-01-23T06:05:20.038Z,52.19
2019-01-23T06:07:52.358Z,53.00
2019-01-23T06:10:26.194Z,51.92
2019-01-23T06:12:57.993Z,50.64
2019-01-23T06:15:30.095Z,49.75
2019-01-23T06:18:01.916Z,49.43
2019-01-23T06:20:33.918Z,49.60
2019-01-23T06:23:06.018Z,49.82
2019-01-23T06:25:37.757Z,49.75
2019-01-23T06:28:09.862Z,49.37
2019-01-23T06:30:40.930Z,49.76
2019-01-23T06:33:14.585Z,49.54
2019-01-23T06:35:47.600Z,50.07
2019-01-23T06:38:23.369Z,49.85
2019-01-23T06:40:54.033Z,49.74
2019-01-23T06:43:25.929Z,49.73
2019-01-23T06:45:58.438Z,49.73
2019-01-23T06:48:31.293Z,48.75
2019-01-23T06:51:05.162Z,49.46
2019-01-23T06:53:36.394Z,48.41
2019-01-23T06:56:21.199Z,48.27
2019-01-23T06:58:52.502Z,48.78
2019-01-23T07:01:26.534Z,49.22
2019-01-23T07:03:57.911Z,48.43
2019-01-23T07:06:30.754Z,48.10
2019-01-23T07:09:01.857Z,50.41
2019-01-23T07:11:36.121Z,49.65
2019-01-23T07:14:07.674Z,49.56
2019-01-23T07:16:39.966Z,49.98
2019-01-23T07:19:10.572Z,49.96
2019-01-23T07:21:44.072Z,48.94
2019-01-23T07:24:16.098Z,49.89
2019-01-23T07:26:49.600Z,50.54
2019-01-23T07:29:23.585Z,49.80
2019-01-23T07:31:55.447Z,49.11
2019-01-23T07:34:29.650Z,49.15
2019-01-23T07:37:03.484Z,48.71
2019-01-23T07:39:35.196Z,48.25
2019-01-23T07:42:08.921Z,50.56
2019-01-23T07:44:41.712Z,50.10
2019-01-23T07:47:18.282Z,51.71
2019-01-23T07:49:50.282Z,50.74
2019-01-23T07:55:27.869Z,49.87
2019-01-23T07:57:59.542Z,49.83
2019-01-23T08:00:31.551Z,51.24
2019-01-23T08:03:02.884Z,50.04
2019-01-23T08:05:35.356Z,50.10
2019-01-23T08:08:08.035Z,49.52
2019-01-23T08:10:40.747Z,50.04
2019-01-23T08:13:11.515Z,50.56
2019-01-23T08:15:46.725Z,50.16
2019-01-23T08:18:17.691Z,50.01
2019-01-23T08:20:49.044Z,49.83
2019-01-23T08:23:21.211Z,51.30
2019-01-23T08:25:55.265Z,50.62
2019-01-23T08:28:26.753Z,50.38
2019-01-23T08:31:03.639Z,49.72
2019-01-23T08:33:34.804Z,50.12
2019-01-23T08:36:07.474Z,49.60
2019-01-23T08:38:38.702Z,50.64
2019-01-23T08:41:11.190Z,49.45
2019-01-23T08:43:43.015Z,48.78
2019-01-23T08:46:15.722Z,48.52
2019-01-23T08:48:47.884Z,48.62
2019-01-23T08:51:18.940Z,47.65
2019-01-23T08:53:50.258Z,48.60
2019-01-23T08:56:22.892Z,47.66
2019-01-23T08:58:55.008Z,47.24
2019-01-23T09:01:25.289Z,47.98
2019-01-23T09:03:57.188Z,48.41
2019-01-23T09:06:33.483Z,49.50
2019-01-23T09:09:08.466Z,50.03
2019-01-23T09:11:43.118Z,50.00
2019-01-23T09:14:14.474Z,50.99
2019-01-23T09:16:47.669Z,48.70
2019-01-23T09:19:19.833Z,48.13
2019-01-23T09:21:56.608Z,50.02
2019-01-23T09:24:33.995Z,48.93
2019-01-23T09:27:06.194Z,50.85
2019-01-23T09:29:39.319Z,49.61
2019-01-23T09:32:47.125Z,49.92
2019-01-23T09:35:49.647Z,51.09
2019-01-23T09:38:59.837Z,52.94
2019-01-23T09:42:17.343Z,51.36
2019-01-23T09:45:35.695Z,51.77
2019-01-23T09:48:43.918Z,51.39
2019-01-23T09:52:16.920Z,50.64
2019-01-23T09:54:49.202Z,50.76
2019-01-23T09:57:22.348Z,50.22
2019-01-23T09:59:54.686Z,50.78
2019-01-23T10:02:28.240Z,49.32
2019-01-23T10:05:01.363Z,47.96
2019-01-23T10:07:33.688Z,46.42
2019-01-23T10:10:05.208Z,46.42
2019-01-23T10:12:38.213Z,47.24
2019-01-23T10:15:15.436Z,46.26
2019-01-23T10:17:47.185Z,45.59
2019-01-23T10:20:18.537Z,45.44
2019-01-23T10:22:50.105Z,45.78
2019-01-23T10:25:21.288Z,46.86
2019-01-23T10:27:53.194Z,46.70
2019-01-23T10:30:26.160Z,47.74
2019-01-23T10:32:58.633Z,47.73
2019-01-23T10:35:35.309Z,47.36
2019-01-23T10:38:09.550Z,45.56
2019-01-23T10:40:42.783Z,45.56
2019-01-23T10:43:14.999Z,44.70
2019-01-23T10:45:46.498Z,44.84
2019-01-23T10:48:18.488Z,45.11
2019-01-23T10:50:50.607Z,45.53
2019-01-23T10:53:23.181Z,44.66
2019-01-23T10:55:59.015Z,43.76
2019-01-23T10:58:32.355Z,42.34
2019-01-23T11:01:06.035Z,41.62
2019-01-23T11:03:42.213Z,40.92
2019-01-23T11:06:16.365Z,42.32
2019-01-23T11:08:49.380Z,41.02
2019-01-23T11:11:25.261Z,40.03
2019-01-23T11:13:59.798Z,41.91
2019-01-23T11:16:34.092Z,41.61
2019-01-23T11:19:05.825Z,40.20
2019-01-23T11:21:43.416Z,39.71
2019-01-23T11:24:16.654Z,40.17
2019-01-23T11:26:49.421Z,40.09
2019-01-23T11:29:23.176Z,40.78
2019-01-23T11:31:57.129Z,39.80
2019-01-23T11:34:29.097Z,39.74
2019-01-23T11:37:01.495Z,41.99
2019-01-23T11:39:35.177Z,41.35
2019-01-23T11:42:08.306Z,40.57
2019-01-23T11:44:43.853Z,40.32
2019-01-23T11:47:18.885Z,39.97
2019-01-23T11:49:50.249Z,39.31
2019-01-23T11:52:23.422Z,39.70
2019-01-23T11:54:57.961Z,39.16
2019-01-23T11:57:31.031Z,39.67
2019-01-23T12:00:02.574Z,39.30
2019-01-23T12:02:37.859Z,39.33
2019-01-23T12:05:11.752Z,39.58
2019-01-23T12:07:46.245Z,38.95
2019-01-23T12:10:20.813Z,38.97
2019-01-23T12:12:53.880Z,38.81
2019-01-23T12:15:26.898Z,38.72
2019-01-23T12:18:00.933Z,38.63
2019-01-23T12:20:32.884Z,38.58
2019-01-23T12:23:04.369Z,38.35
2019-01-23T12:25:35.646Z,38.80
2019-01-23T12:28:07.081Z,39.19
2019-01-23T12:30:53.794Z,39.53
2019-01-23T12:33:35.526Z,39.99
2019-01-23T12:36:08.102Z,39.15
2019-01-23T12:38:39.128Z,40.22
2019-01-23T12:41:09.713Z,38.64
2019-01-23T12:43:41.658Z,38.87
2019-01-23T12:46:14.939Z,38.68
2019-01-23T12:48:53.109Z,38.48
2019-01-23T12:51:25.572Z,38.21
2019-01-23T12:53:58.135Z,39.43
2019-01-23T12:56:29.250Z,38.56
2019-01-23T12:59:04.442Z,38.52
2019-01-23T13:01:56.064Z,38.39
2019-01-23T13:04:30.658Z,39.91
2019-01-23T13:07:04.546Z,38.83
2019-01-23T13:09:36.083Z,37.91
2019-01-23T13:12:07.741Z,37.00
2019-01-23T13:14:38.353Z,37.64
2019-01-23T13:17:09.740Z,37.37
2019-01-23T13:19:44.671Z,37.49
2019-01-23T13:22:16.851Z,37.28
2019-01-23T13:24:53.500Z,37.29
2019-01-23T13:27:25.054Z,38.94
2019-01-23T13:29:58.540Z,39.23
2019-01-23T13:32:29.471Z,38.51
2019-01-23T13:35:01.666Z,38.10
2019-01-23T13:37:35.706Z,37.71
2019-01-23T13:40:12.164Z,37.96
2019-01-23T13:42:44.624Z,37.35
2019-01-23T13:45:17.567Z,37.16
2019-01-23T13:47:50.935Z,36.95
2019-01-23T13:50:22.548Z,37.27
2019-01-23T13:52:53.913Z,38.74
2019-01-23T13:55:27.847Z,38.26
2019-01-23T13:57:59.443Z,38.10
2019-01-23T14:00:37.298Z,38.13
2019-01-23T14:03:08.772Z,38.83
2019-01-23T14:05:40.340Z,38.02
2019-01-23T14:08:11.599Z,37.86
2019-01-23T14:10:44.643Z,37.94
2019-01-23T14:13:17.839Z,39.46
2019-01-23T14:15:50.634Z,39.01
2019-01-23T14:18:21.361Z,39.12
2019-01-23T14:20:52.974Z,40.24
2019-01-23T14:23:23.795Z,39.55
2019-01-23T14:25:56.063Z,39.81
2019-01-23T14:28:27.211Z,40.70
2019-01-23T14:30:58.843Z,39.66
2019-01-23T14:33:30.693Z,39.55
2019-01-23T14:36:04.717Z,38.96
2019-01-23T14:38:36.216Z,38.72
2019-01-23T14:41:08.937Z,38.96
2019-01-23T14:43:40.283Z,38.81
2019-01-23T14:46:12.959Z,39.01
2019-01-23T14:48:45.425Z,39.06
2019-01-23T14:51:19.065Z,39.24
2019-01-23T14:53:49.309Z,41.37
2019-01-23T14:56:21.372Z,40.50
2019-01-23T14:58:53.337Z,41.27
2019-01-23T15:01:25.700Z,40.61
2019-01-23T15:03:58.336Z,40.46
2019-01-23T15:06:30.124Z,40.30
2019-01-23T15:09:04.864Z,41.46
2019-01-23T15:11:37.328Z,41.10
2019-01-23T15:14:09.615Z,40.65
2019-01-23T15:16:42.784Z,41.27
2019-01-23T15:19:14.509Z,40.54
2019-01-23T15:21:46.206Z,40.40
2019-01-23T15:24:17.824Z,39.70
2019-01-23T15:26:50.487Z,39.46
2019-01-23T15:29:26.644Z,39.29
2019-01-23T15:31:58.537Z,39.88
2019-01-23T15:34:29.481Z,39.71
2019-01-23T15:37:02.871Z,39.29
2019-01-23T15:39:35.588Z,39.47
2019-01-23T15:42:07.022Z,39.00
2019-01-23T15:44:39.006Z,38.45
2019-01-23T15:47:16.421Z,38.83
2019-01-23T15:49:48.794Z,39.21
2019-01-23T15:52:23.079Z,39.63
2019-01-23T15:54:54.765Z,38.82
2019-01-23T15:57:27.842Z,38.64
2019-01-23T16:00:00.975Z,39.83
2019-01-23T16:02:35.143Z,40.52
2019-01-23T16:05:09.166Z,41.11
2019-01-23T16:07:40.922Z,41.49
2019-01-23T16:10:17.346Z,40.68
2019-01-23T16:12:50.521Z,40.76
2019-01-23T16:15:25.222Z,41.88
2019-01-23T16:17:57.753Z,42.17
2019-01-23T16:20:31.065Z,40.95
2019-01-23T16:23:03.664Z,41.94
2019-01-23T16:25:35.956Z,41.41
2019-01-23T16:28:20.990Z,41.19
2019-01-23T16:31:04.624Z,41.02
2019-01-23T16:34:03.813Z,41.82
2019-01-23T16:36:41.832Z,42.00
2019-01-23T16:39:18.452Z,41.59
2019-01-23T16:41:53.935Z,42.34
2019-01-23T16:44:32.043Z,41.87
2019-01-23T16:47:16.483Z,40.81
2019-01-23T16:49:56.805Z,40.98
2019-01-23T16:52:31.663Z,40.88
2019-01-23T16:55:15.756Z,40.19
2019-01-23T16:57:58.524Z,39.84
2019-01-23T17:00:34.460Z,40.00
2019-01-23T17:03:17.019Z,39.87
2019-01-23T17:05:57.126Z,39.71
2019-01-23T17:08:45.179Z,39.30
2019-01-23T17:11:29.304Z,39.07
2019-01-23T17:14:06.519Z,38.28
2019-01-23T17:16:42.584Z,39.66
2019-01-23T17:19:23.685Z,39.50
2019-01-23T17:21:59.121Z,39.16
2019-01-23T17:24:37.489Z,38.86
2019-01-23T17:27:15.215Z,38.61
2019-01-23T17:29:57.669Z,39.47
2019-01-23T17:32:38.310Z,39.22
2019-01-23T17:35:19.809Z,38.98
2019-01-23T17:38:02.048Z,38.39
2019-01-23T17:40:58.048Z,38.30
2019-01-23T17:43:40.851Z,38.69
2019-01-23T17:46:19.207Z,39.22
2019-01-23T17:52:08.051Z,38.70
2019-01-23T17:54:42.878Z,39.01
2019-01-23T17:57:14.263Z,39.13
2019-01-23T17:59:48.945Z,39.07
2019-01-23T18:02:40.374Z,38.80
2019-01-23T18:05:13.341Z,38.29
2019-01-23T18:07:44.752Z,39.15
2019-01-23T18:10:22.811Z,38.26
2019-01-23T18:12:55.977Z,38.12
2019-01-23T18:15:28.290Z,38.43
2019-01-23T18:18:00.339Z,38.09
2019-01-23T18:20:32.706Z,38.08
2019-01-23T18:23:07.449Z,37.85
2019-01-23T18:25:40.329Z,37.58
2019-01-23T18:28:13.766Z,37.95
2019-01-23T18:30:53.057Z,37.39
2019-01-23T18:33:32.451Z,37.20
2019-01-23T18:36:47.031Z,37.33
2019-01-23T18:39:55.168Z,37.28
2019-01-23T18:42:46.043Z,37.40
2019-01-23T18:45:41.188Z,37.26
2019-01-23T18:48:49.920Z,37.23
2019-01-23T18:51:32.451Z,37.07
2019-01-23T18:54:07.652Z,37.37
2019-01-23T18:56:38.922Z,37.89
2019-01-23T18:59:10.741Z,37.76
2019-01-23T19:01:42.057Z,37.38
2019-01-23T19:04:14.073Z,37.34
2019-01-23T19:06:46.535Z,37.82
2019-01-23T19:09:28.876Z,37.49
2019-01-23T19:12:02.887Z,37.59
2019-01-23T19:14:36.880Z,37.60
2019-01-23T19:17:07.187Z,37.14
2019-01-23T19:19:40.689Z,37.18
2019-01-23T19:22:11.180Z,36.97
2019-01-23T19:24:43.429Z,36.69
2019-01-23T19:27:17.130Z,36.99
2019-01-23T19:29:50.013Z,36.89
2019-01-23T19:32:21.093Z,36.66
2019-01-23T19:34:54.257Z,36.97
2019-01-23T19:37:26.725Z,37.61
2019-01-23T19:39:59.722Z,37.23
2019-01-23T19:42:31.379Z,37.44
2019-01-23T19:45:03.219Z,37.09
2019-01-23T19:47:33.814Z,37.20
2019-01-23T19:50:06.978Z,36.81
2019-01-23T19:52:38.907Z,36.88
2019-01-23T19:55:12.188Z,37.13
2019-01-23T19:57:42.795Z,36.96
2019-01-23T20:00:16.660Z,37.58
2019-01-23T20:02:47.708Z,37.22
2019-01-23T20:05:23.030Z,37.90
2019-01-23T20:07:55.906Z,37.41
2019-01-23T20:10:29.498Z,36.95
2019-01-23T20:13:00.153Z,37.12
2019-01-23T20:15:38.967Z,37.24
2019-01-23T20:18:13.046Z,36.59
2019-01-23T20:20:45.898Z,36.78
2019-01-23T20:23:17.470Z,36.62
2019-01-23T20:25:49.420Z,36.62
2019-01-23T20:28:22.832Z,36.76
2019-01-23T20:30:53.586Z,36.75
2019-01-23T20:33:28.046Z,36.49
2019-01-23T20:36:01.167Z,36.49
2019-01-23T20:38:35.065Z,36.40
2019-01-23T20:41:06.506Z,36.63
2019-01-23T20:43:38.815Z,36.23
2019-01-23T20:46:13.138Z,36.01
2019-01-23T20:48:44.260Z,36.06
2019-01-23T20:51:18.999Z,35.87
2019-01-23T20:53:50.516Z,35.94
2019-01-23T20:56:22.513Z,36.02
2019-01-23T20:58:53.968Z,36.08
2019-01-23T21:01:27.701Z,36.02
2019-01-23T21:03:59.428Z,35.96
2019-01-23T21:06:33.525Z,36.10
2019-01-23T21:09:11.342Z,35.87
2019-01-23T21:11:43.524Z,36.10
2019-01-23T21:14:18.666Z,36.28
2019-01-23T21:16:52.874Z,36.10
2019-01-23T21:19:23.993Z,35.93
2019-01-23T21:22:01.496Z,36.20
2019-01-23T21:24:42.963Z,36.16
2019-01-23T21:27:16.826Z,35.89
2019-01-23T21:29:53.516Z,35.71
2019-01-23T21:32:30.774Z,35.91
2019-01-23T21:35:09.208Z,35.79
2019-01-23T21:37:42.532Z,35.78
2019-01-23T21:40:21.191Z,35.72
2019-01-23T21:42:55.685Z,35.65
2019-01-23T21:45:40.839Z,36.08
2019-01-23T21:48:15.645Z,36.16
2019-01-23T21:50:48.177Z,36.59
2019-01-23T21:53:20.932Z,37.07
2019-01-23T21:55:54.765Z,37.40
2019-01-23T21:58:26.006Z,37.61
2019-01-23T22:01:04.282Z,38.02
2019-01-23T22:03:37.018Z,37.70
2019-01-23T22:06:12.542Z,38.07
2019-01-23T22:08:49.330Z,38.27
2019-01-23T22:11:26.567Z,38.42
2019-01-23T22:14:00.838Z,38.33
2019-01-23T22:16:35.009Z,38.45
2019-01-23T22:19:06.028Z,38.63
2019-01-23T22:21:38.387Z,38.83
2019-01-23T22:24:12.680Z,39.03
2019-01-23T22:26:43.709Z,38.97
2019-01-23T22:29:14.466Z,39.17
2019-01-23T22:31:48.562Z,39.20
2019-01-23T22:34:19.522Z,39.14
2019-01-23T22:36:52.413Z,39.37
2019-01-23T22:39:26.011Z,39.14
2019-01-23T22:42:01.335Z,39.26
2019-01-23T22:44:35.019Z,39.29
2019-01-23T22:47:12.137Z,39.00
2019-01-23T22:49:45.315Z,39.15
2019-01-23T22:52:19.004Z,39.68
2019-01-23T22:54:50.826Z,39.66
2019-01-23T22:57:26.150Z,40.09
2019-01-23T23:00:06.995Z,40.10
2019-01-23T23:02:52.822Z,40.29
2019-01-23T23:05:26.916Z,40.66
2019-01-23T23:08:00.989Z,40.67
2019-01-23T23:10:32.659Z,40.23
2019-01-23T23:13:05.310Z,40.16
2019-01-23T23:15:38.957Z,40.13
2019-01-23T23:18:09.985Z,39.88
2019-01-23T23:20:42.141Z,39.67
2019-01-23T23:23:13.233Z,39.82
2019-01-23T23:25:45.973Z,39.86
2019-01-23T23:28:18.557Z,39.76
2019-01-23T23:30:52.282Z,39.60
2019-01-23T23:33:24.137Z,39.63
2019-01-23T23:35:55.710Z,39.51
2019-01-23T23:38:28.455Z,39.47
2019-01-23T23:41:00.970Z,39.03
2019-01-23T23:43:32.490Z,38.64
2019-01-23T23:46:04.509Z,38.29
2019-01-23T23:48:37.099Z,38.36
2019-01-23T23:51:11.343Z,38.10
2019-01-23T23:53:42.717Z,38.43
2019-01-23T23:56:14.777Z,38.57
2019-01-23T23:58:45.599Z,38.83
